Time;durP1;ratioP1;P1;durP2;ratioP2;P2;SDS_P1;SDS_P2;PMS_P1;PMS_P2;Temp;Humidity;BMP_temperature;BMP_pressure;BME280_temperature;BME280_humidity;BME280_pressure;Samples;Min_cycle;Max_cycle;Signal;HPM_P1;HPM_P2
2022/10/23 00:01:45;;;;;;;4.35;2.20;;;12.50;88.30;;;;;;5061993;28;20140;-70
2022/10/23 00:04:14;;;;;;;5.07;2.25;;;12.50;88.30;;;;;;5060699;28;20059;-71
2022/10/23 00:06:42;;;;;;;7.68;2.50;;;12.50;88.20;;;;;;5067031;28;20052;-72
2022/10/23 00:09:11;;;;;;;7.95;3.25;;;12.40;88.10;;;;;;5062762;28;20068;-69
2022/10/23 00:11:40;;;;;;;5.63;2.40;;;12.40;88.20;;;;;;5062491;28;20041;-69
2022/10/23 00:14:07;;;;;;;7.13;2.30;;;12.40;88.10;;;;;;5063805;28;20044;-69
2022/10/23 00:16:36;;;;;;;4.00;2.17;;;12.40;88.20;;;;;;5060462;28;20048;-70
2022/10/23 00:19:04;;;;;;;8.77;2.28;;;12.30;88.20;;;;;;5062439;28;20059;-71
2022/10/23 00:21:31;;;;;;;6.80;2.17;;;12.30;88.20;;;;;;5060052;28;20075;-71
2022/10/23 00:23:58;;;;;;;4.00;2.10;;;12.30;88.10;;;;;;5063249;28;20139;-69
2022/10/23 00:26:25;;;;;;;4.68;2.28;;;12.30;88.00;;;;;;5064870;28;20683;-70
2022/10/23 00:28:53;;;;;;;4.20;2.03;;;12.20;87.90;;;;;;5059107;28;20045;-71
2022/10/23 00:31:21;;;;;;;5.70;2.03;;;12.20;87.90;;;;;;5074711;28;20166;-71
2022/10/23 00:33:50;;;;;;;4.47;1.95;;;12.20;87.90;;;;;;5063138;28;20459;-70
2022/10/23 00:36:19;;;;;;;4.30;1.90;;;12.20;87.80;;;;;;5061725;28;20525;-69
2022/10/23 00:38:46;;;;;;;3.30;1.77;;;12.20;87.90;;;;;;5063700;28;20075;-69
2022/10/23 00:41:16;;;;;;;4.47;1.60;;;12.20;87.90;;;;;;5060420;28;20064;-69
2022/10/23 00:44:01;;;;;;;3.63;1.60;;;12.20;87.80;;;;;;5062660;28;20110;-70
2022/10/23 00:46:29;;;;;;;5.72;1.40;;;12.10;87.80;;;;;;5063110;28;20048;-70
2022/10/23 00:48:58;;;;;;;2.90;1.65;;;12.10;87.90;;;;;;5064192;28;20049;-71
2022/10/23 00:51:27;;;;;;;3.03;1.50;;;12.10;87.80;;;;;;5063649;28;20516;-71
2022/10/23 00:53:58;;;;;;;3.10;1.50;;;12.10;87.70;;;;;;5063522;28;20037;-71
2022/10/23 00:56:26;;;;;;;2.95;1.40;;;12.00;87.80;;;;;;5064751;28;20048;-70
2022/10/23 00:58:53;;;;;;;3.20;1.27;;;12.00;87.70;;;;;;5064229;28;20460;-70
2022/10/23 01:01:22;;;;;;;3.83;1.67;;;11.90;87.60;;;;;;5061037;28;20474;-71
2022/10/23 01:03:50;;;;;;;3.67;1.33;;;11.90;87.60;;;;;;5062681;28;20479;-70
2022/10/23 01:06:27;;;;;;;4.53;1.48;;;11.90;87.60;;;;;;5061783;28;20044;-70
2022/10/23 01:09:00;;;;;;;4.07;1.83;;;11.90;87.50;;;;;;5063960;28;20048;-71
2022/10/23 01:11:35;;;;;;;4.22;1.58;;;11.90;87.60;;;;;;5065499;28;20056;-70
2022/10/23 01:14:09;;;;;;;4.63;1.75;;;11.90;87.50;;;;;;5070323;28;20055;-71
2022/10/23 01:16:41;;;;;;;5.45;1.70;;;11.80;87.40;;;;;;5066280;28;20044;-69
2022/10/23 01:19:16;;;;;;;3.60;1.48;;;11.80;87.40;;;;;;5062886;28;20086;-70
2022/10/23 01:21:54;;;;;;;3.88;1.52;;;11.70;87.50;;;;;;5062530;28;20607;-69
2022/10/23 01:24:49;;;;;;;4.00;1.73;;;11.70;87.60;;;;;;5058575;28;20128;-71
2022/10/23 01:27:26;;;;;;;5.47;2.20;;;11.80;87.10;;;;;;5040819;28;20566;-70
2022/10/23 01:30:03;;;;;;;4.38;1.85;;;11.80;87.00;;;;;;5064628;28;20118;-70
2022/10/23 01:32:47;;;;;;;4.07;1.80;;;11.80;87.00;;;;;;5065767;28;20045;-69
2022/10/23 01:35:19;;;;;;;6.78;2.03;;;11.90;87.20;;;;;;5059678;28;20477;-70
2022/10/23 01:37:56;;;;;;;3.88;1.75;;;11.90;87.10;;;;;;5060477;28;20049;-69
2022/10/23 01:40:27;;;;;;;3.78;1.73;;;11.80;87.20;;;;;;5062129;28;20476;-69
2022/10/23 01:43:02;;;;;;;3.97;1.70;;;11.70;87.20;;;;;;5063994;28;20048;-72
2022/10/23 01:45:34;;;;;;;3.78;1.70;;;11.70;87.20;;;;;;5041326;28;20417;-70
2022/10/23 01:48:01;;;;;;;4.38;1.80;;;11.70;87.40;;;;;;5042401;28;20049;-71
2022/10/23 01:50:29;;;;;;;4.53;1.85;;;11.70;87.20;;;;;;5040835;28;20418;-71
2022/10/23 01:53:02;;;;;;;4.80;2.05;;;11.70;87.30;;;;;;5042079;28;20062;-70
2022/10/23 01:55:31;;;;;;;3.50;1.80;;;11.70;87.30;;;;;;5045932;28;20927;-71
2022/10/23 01:58:02;;;;;;;3.08;1.33;;;11.70;87.20;;;;;;5041019;28;20045;-72
2022/10/23 02:00:40;;;;;;;3.08;1.35;;;11.70;87.20;;;;;;5040622;28;20132;-71
2022/10/23 02:03:08;;;;;;;;;;;11.60;87.40;;;;;;5049578;28;20060;-71
2022/10/23 02:05:38;;;;;;;3.45;1.30;;;11.60;87.60;;;;;;5060426;28;20439;-71
2022/10/23 02:08:06;;;;;;;4.43;1.70;;;11.50;87.80;;;;;;5043145;28;20051;-70
2022/10/23 02:10:42;;;;;;;3.88;1.50;;;11.60;87.80;;;;;;5042534;28;20136;-71
2022/10/23 02:13:16;;;;;;;2.92;1.30;;;11.60;87.80;;;;;;5042215;28;20056;-70
2022/10/23 02:15:47;;;;;;;8.18;1.60;;;11.60;87.80;;;;;;5041345;28;20060;-71
2022/10/23 02:18:25;;;;;;;3.67;1.52;;;11.50;87.80;;;;;;5056279;28;20051;-71
2022/10/23 02:20:56;;;;;;;4.10;1.48;;;11.50;87.80;;;;;;5041014;28;20049;-70
2022/10/23 02:23:30;;;;;;;4.20;1.35;;;11.50;87.80;;;;;;5044093;28;20048;-71
2022/10/23 02:26:04;;;;;;;4.30;1.58;;;11.50;87.90;;;;;;5041776;28;20114;-72
2022/10/23 02:28:38;;;;;;;5.53;1.38;;;11.40;87.90;;;;;;5040147;28;20053;-69
2022/10/23 02:31:09;;;;;;;3.05;1.33;;;11.40;88.00;;;;;;5040641;28;20057;-71
2022/10/23 02:33:37;;;;;;;3.45;1.30;;;11.40;87.90;;;;;;5039390;28;20099;-71
2022/10/23 02:36:04;;;;;;;3.92;1.15;;;11.40;87.90;;;;;;5043181;28;20148;-69
2022/10/23 02:38:39;;;;;;;4.65;1.40;;;11.40;87.90;;;;;;5038109;28;20085;-69
2022/10/23 02:41:26;;;;;;;3.33;1.20;;;11.40;87.90;;;;;;5042872;28;20804;-71
2022/10/23 02:44:17;;;;;;;3.63;1.13;;;11.40;87.90;;;;;;5057220;28;20072;-69
2022/10/23 02:46:53;;;;;;;3.78;1.30;;;11.50;87.80;;;;;;5062798;28;20574;-70
2022/10/23 02:49:27;;;;;;;4.55;1.40;;;11.60;87.70;;;;;;5062498;28;20055;-70
2022/10/23 02:52:04;;;;;;;3.03;1.40;;;11.50;87.60;;;;;;5059836;28;20076;-72
2022/10/23 02:54:43;;;;;;;4.75;1.38;;;11.50;87.70;;;;;;5051498;28;20079;-71
2022/10/23 02:57:18;;;;;;;2.60;1.17;;;11.50;87.70;;;;;;5047233;28;20098;-70
2022/10/23 02:59:59;;;;;;;4.70;1.30;;;11.50;87.80;;;;;;5057680;28;20044;-68
2022/10/23 03:02:32;;;;;;;6.03;1.27;;;11.50;88.00;;;;;;5056931;28;20051;-68
2022/10/23 03:05:01;;;;;;;3.38;1.17;;;11.40;88.20;;;;;;5058021;28;20044;-72
2022/10/23 03:07:28;;;;;;;4.28;1.10;;;11.50;88.30;;;;;;5064003;28;20052;-71
2022/10/23 03:10:03;;;;;;;2.60;1.15;;;11.40;88.40;;;;;;5064228;28;20048;-65
2022/10/23 03:12:32;;;;;;;3.22;1.27;;;11.40;88.40;;;;;;5065637;28;20414;-72
2022/10/23 03:15:00;;;;;;;7.75;1.30;;;11.40;88.40;;;;;;5063857;28;20526;-70
2022/10/23 03:17:28;;;;;;;2.75;0.93;;;11.40;88.30;;;;;;5062259;28;20053;-72
2022/10/23 03:19:58;;;;;;;3.67;1.00;;;11.40;88.40;;;;;;5064526;28;20047;-69
2022/10/23 03:22:25;;;;;;;4.82;1.15;;;11.40;88.30;;;;;;5057665;28;20059;-70
2022/10/23 03:24:54;;;;;;;2.10;1.33;;;11.40;88.30;;;;;;5065447;28;20113;-72
2022/10/23 03:27:21;;;;;;;3.17;1.10;;;11.30;88.40;;;;;;5057878;28;20055;-69
2022/10/23 03:29:48;;;;;;;5.65;1.63;;;11.30;88.50;;;;;;5060019;28;20041;-71
2022/10/23 03:32:18;;;;;;;4.88;1.42;;;11.40;88.50;;;;;;5056340;28;20480;-70
2022/10/23 03:34:45;;;;;;;4.75;1.40;;;11.40;88.50;;;;;;5079680;28;20052;-70
2022/10/23 03:37:13;;;;;;;4.20;1.67;;;11.40;88.50;;;;;;5065671;28;20048;-69
2022/10/23 03:39:40;;;;;;;4.57;1.50;;;11.40;88.20;;;;;;5065018;28;20165;-72
2022/10/23 03:42:07;;;;;;;3.25;1.30;;;11.40;88.30;;;;;;5063272;28;20110;-69
2022/10/23 03:44:34;;;;;;;4.97;1.70;;;11.40;88.40;;;;;;5062818;28;20390;-70
2022/10/23 03:47:02;;;;;;;4.05;1.50;;;11.40;88.50;;;;;;5082686;28;20072;-70
2022/10/23 03:49:30;;;;;;;2.38;1.00;;;11.40;88.70;;;;;;5082142;28;20052;-71
2022/10/23 03:52:03;;;;;;;2.95;1.00;;;11.40;88.80;;;;;;5061142;28;20105;-70
2022/10/23 03:54:31;;;;;;;3.30;1.20;;;11.40;88.80;;;;;;5065112;28;20076;-71
2022/10/23 03:56:58;;;;;;;3.75;1.30;;;11.50;88.90;;;;;;5064668;28;20045;-70
2022/10/23 03:59:26;;;;;;;3.97;1.20;;;11.50;88.80;;;;;;5064486;28;20170;-70
2022/10/23 04:01:54;;;;;;;4.60;1.70;;;11.50;88.80;;;;;;5080001;28;20541;-70
2022/10/23 04:04:21;;;;;;;4.90;1.40;;;11.50;88.90;;;;;;5062399;28;20393;-70
2022/10/23 04:06:50;;;;;;;6.32;1.77;;;11.50;88.80;;;;;;5064470;28;20041;-70
2022/10/23 04:09:19;;;;;;;4.50;1.70;;;11.50;88.60;;;;;;5061333;28;20049;-71
2022/10/23 04:11:46;;;;;;;5.43;1.55;;;11.50;88.90;;;;;;5064685;28;20098;-71
2022/10/23 04:14:14;;;;;;;6.18;1.95;;;11.40;88.80;;;;;;5064119;28;20482;-71
2022/10/23 04:16:41;;;;;;;4.22;1.73;;;11.40;88.80;;;;;;5053308;28;20127;-71
2022/10/23 04:19:09;;;;;;;3.90;1.70;;;11.40;89.00;;;;;;5063773;28;20051;-69
2022/10/23 04:21:36;;;;;;;4.65;1.40;;;11.40;89.00;;;;;;5065017;28;20049;-70
2022/10/23 04:24:05;;;;;;;5.95;1.75;;;11.40;89.00;;;;;;5056656;28;20068;-71
2022/10/23 04:26:32;;;;;;;2.47;1.15;;;11.40;88.90;;;;;;5058082;28;20052;-71
2022/10/23 04:28:59;;;;;;;5.15;1.48;;;11.40;88.90;;;;;;5072698;28;20897;-71
2022/10/23 04:31:28;;;;;;;2.55;1.08;;;11.30;89.00;;;;;;5058438;28;20049;-70
2022/10/23 04:33:55;;;;;;;2.47;1.10;;;11.30;89.00;;;;;;5056597;28;20070;-71
2022/10/23 04:36:40;;;;;;;3.47;1.10;;;11.30;88.90;;;;;;5058225;28;21099;-71
2022/10/23 04:39:11;;;;;;;4.07;1.20;;;11.40;88.80;;;;;;5051312;28;20049;-70
2022/10/23 04:41:39;;;;;;;3.67;1.30;;;11.30;88.80;;;;;;5060285;28;20049;-71
2022/10/23 04:44:07;;;;;;;5.20;1.10;;;11.30;88.80;;;;;;5061376;28;20048;-71
2022/10/23 04:46:41;;;;;;;3.97;1.20;;;11.30;89.00;;;;;;5063651;28;20052;-72
2022/10/23 04:49:09;;;;;;;3.33;1.00;;;11.30;89.10;;;;;;5066849;28;20078;-70
2022/10/23 04:51:49;;;;;;;2.72;0.80;;;11.30;89.10;;;;;;5065973;28;20398;-70
2022/10/23 04:54:47;;;;;;;2.67;0.95;;;11.30;88.90;;;;;;5056017;28;20128;-71
2022/10/23 04:57:26;;;;;;;2.63;0.90;;;11.30;89.00;;;;;;5064309;28;20044;-70
2022/10/23 05:00:09;;;;;;;3.35;1.00;;;11.30;88.90;;;;;;5067480;28;20110;-71
2022/10/23 05:02:50;;;;;;;2.53;1.00;;;11.30;89.10;;;;;;5066838;28;20048;-69
2022/10/23 05:05:18;;;;;;;4.35;0.98;;;11.30;89.20;;;;;;5060943;28;20151;-71
2022/10/23 05:07:56;;;;;;;5.22;1.20;;;11.30;89.20;;;;;;5083099;28;20041;-71
2022/10/23 05:10:38;;;;;;;3.33;1.10;;;11.30;89.00;;;;;;5058245;28;20068;-71
2022/10/23 05:13:10;;;;;;;1.85;0.85;;;11.30;89.00;;;;;;5066737;28;20048;-71
2022/10/23 05:15:38;;;;;;;2.38;0.93;;;11.20;89.20;;;;;;5059038;28;20049;-70
2022/10/23 05:18:11;;;;;;;2.55;1.23;;;11.30;89.10;;;;;;5062725;28;20051;-70
2022/10/23 05:20:39;;;;;;;3.75;1.10;;;11.30;88.90;;;;;;5064036;28;20056;-69
2022/10/23 05:23:13;;;;;;;3.90;1.30;;;11.30;89.00;;;;;;5065872;28;20051;-69
2022/10/23 05:25:43;;;;;;;4.30;1.17;;;11.30;89.10;;;;;;5061423;28;20048;-71
2022/10/23 05:28:17;;;;;;;3.20;1.15;;;11.30;89.20;;;;;;5053971;28;20063;-69
2022/10/23 05:30:44;;;;;;;9.35;1.67;;;11.30;88.90;;;;;;5078095;28;20049;-71
2022/10/23 05:33:12;;;;;;;5.55;1.70;;;11.30;88.90;;;;;;5064701;28;20075;-71
2022/10/23 05:35:44;;;;;;;4.88;1.70;;;11.20;88.80;;;;;;5052195;28;20051;-71
2022/10/23 05:38:14;;;;;;;4.70;1.85;;;11.20;88.80;;;;;;5064558;28;20402;-71
2022/10/23 05:40:44;;;;;;;3.28;1.50;;;11.10;89.20;;;;;;5062454;28;20466;-71
2022/10/23 05:43:16;;;;;;;2.90;1.40;;;11.20;89.10;;;;;;5063062;28;20052;-71
2022/10/23 05:45:53;;;;;;;2.90;1.27;;;11.20;89.20;;;;;;5057812;28;20131;-70
2022/10/23 05:48:38;;;;;;;4.97;1.60;;;11.30;89.30;;;;;;5063842;28;20097;-71
2022/10/23 05:51:10;;;;;;;4.30;1.13;;;11.30;89.10;;;;;;5065808;28;20056;-71
2022/10/23 05:53:52;;;;;;;5.35;1.55;;;11.30;89.20;;;;;;5066318;28;20407;-69
2022/10/23 05:56:32;;;;;;;5.03;1.45;;;11.30;89.10;;;;;;5063217;28;20425;-69
2022/10/23 05:59:09;;;;;;;4.05;1.48;;;11.30;89.10;;;;;;5064040;28;20090;-71
2022/10/23 06:02:08;;;;;;;3.33;1.35;;;11.30;89.20;;;;;;5059836;28;20421;-70
2022/10/23 06:05:05;;;;;;;4.53;1.50;;;11.30;89.30;;;;;;5060276;28;20514;-71
2022/10/23 06:07:48;;;;;;;4.80;1.65;;;11.30;89.40;;;;;;5066207;28;20045;-69
2022/10/23 06:10:16;;;;;;;4.15;1.35;;;11.40;89.50;;;;;;5061240;28;20055;-70
2022/10/23 06:12:47;;;;;;;;;;;11.40;89.20;;;;;;5064862;28;20107;-69
2022/10/23 06:15:17;;;;;;;3.22;1.30;;;11.40;89.20;;;;;;5064101;28;20013;-71
2022/10/23 06:18:05;;;;;;;4.35;1.50;;;11.40;89.40;;;;;;5059528;28;20591;-70
2022/10/23 06:20:37;;;;;;;3.42;1.50;;;11.40;89.60;;;;;;5064635;28;20045;-71
2022/10/23 06:23:15;;;;;;;4.00;1.40;;;11.40;89.70;;;;;;5061135;28;20066;-69
2022/10/23 06:26:19;;;;;;;3.97;1.50;;;11.40;89.70;;;;;;5055866;28;20530;-70
2022/10/23 06:29:08;;;;;;;2.10;1.17;;;11.40;89.90;;;;;;5058572;28;20083;-69
2022/10/23 06:31:36;;;;;;;2.83;1.23;;;11.40;89.60;;;;;;5059147;28;20091;-69
2022/10/23 06:34:04;;;;;;;4.00;1.40;;;11.40;90.20;;;;;;5061107;28;20094;-68
2022/10/23 06:36:34;;;;;;;3.53;1.25;;;11.40;89.80;;;;;;5068736;28;20041;-69
2022/10/23 06:39:21;;;;;;;2.60;1.38;;;11.40;90.20;;;;;;5063769;28;20052;-70
2022/10/23 06:41:58;;;;;;;3.83;1.25;;;11.50;90.00;;;;;;5068565;28;20056;-69
2022/10/23 06:44:56;;;;;;;6.18;1.42;;;11.40;89.90;;;;;;5050748;28;20051;-70
2022/10/23 06:47:50;;;;;;;4.22;1.50;;;11.50;90.00;;;;;;5052816;28;20159;-70
2022/10/23 06:50:37;;;;;;;4.65;1.27;;;11.50;90.10;;;;;;5068543;28;20090;-70
2022/10/23 06:53:08;;;;;;;3.22;1.40;;;11.60;90.10;;;;;;5061093;28;20056;-70
2022/10/23 06:55:39;;;;;;;3.95;1.40;;;11.60;90.20;;;;;;5067427;28;20052;-70
2022/10/23 06:58:09;;;;;;;3.28;1.40;;;11.60;90.00;;;;;;5060412;28;20052;-70
2022/10/23 07:00:41;;;;;;;3.50;1.40;;;11.60;89.70;;;;;;5061115;28;20076;-70
2022/10/23 07:03:08;;;;;;;5.13;1.45;;;11.60;89.80;;;;;;5063739;28;20045;-70
2022/10/23 07:05:35;;;;;;;5.40;1.63;;;11.60;89.90;;;;;;5066528;28;20040;-70
2022/10/23 07:08:04;;;;;;;3.58;1.52;;;11.60;89.80;;;;;;5064949;28;20052;-69
2022/10/23 07:10:41;;;;;;;3.75;1.77;;;11.60;89.90;;;;;;5062560;28;20045;-70
2022/10/23 07:13:15;;;;;;;5.28;1.73;;;11.70;89.90;;;;;;5064192;28;20072;-69
2022/10/23 07:16:00;;;;;;;3.88;1.23;;;11.60;90.00;;;;;;5076534;28;20075;-68
2022/10/23 07:18:28;;;;;;;4.43;1.67;;;11.70;89.90;;;;;;5060819;28;20056;-71
2022/10/23 07:21:35;;;;;;;3.88;1.45;;;11.60;89.50;;;;;;5044883;28;20107;-71
2022/10/23 07:24:22;;;;;;;4.47;1.73;;;11.60;89.40;;;;;;5027247;28;20157;-68
2022/10/23 07:26:49;;;;;;;3.92;2.00;;;11.70;89.80;;;;;;5048246;28;20048;-69
2022/10/23 07:29:17;;;;;;;6.97;2.20;;;11.80;89.80;;;;;;5063698;28;20045;-70
2022/10/23 07:31:46;;;;;;;5.22;2.10;;;11.70;89.80;;;;;;5066062;28;20045;-70
2022/10/23 07:34:32;;;;;;;4.35;1.90;;;11.70;89.80;;;;;;5065516;28;20178;-71
2022/10/23 07:37:14;;;;;;;5.60;1.70;;;11.70;89.80;;;;;;5064424;28;20050;-69
2022/10/23 07:39:42;;;;;;;5.32;1.88;;;11.80;89.80;;;;;;5066714;28;20056;-70
2022/10/23 07:42:10;;;;;;;5.80;2.10;;;11.80;89.70;;;;;;5069769;28;20053;-71
2022/10/23 07:44:37;;;;;;;5.55;1.95;;;11.90;89.60;;;;;;5063849;28;20445;-70
2022/10/23 07:47:06;;;;;;;4.90;1.80;;;11.90;89.90;;;;;;5066385;28;20045;-70
2022/10/23 07:49:33;;;;;;;5.53;1.60;;;11.90;89.90;;;;;;5064557;28;20044;-69
2022/10/23 07:52:00;;;;;;;3.33;1.63;;;12.00;89.80;;;;;;5067360;28;20063;-69
2022/10/23 07:54:37;;;;;;;3.45;1.40;;;12.00;90.00;;;;;;5061075;28;20048;-68
2022/10/23 07:57:20;;;;;;;4.05;1.33;;;12.10;90.00;;;;;;5071196;28;20075;-71
2022/10/23 07:59:54;;;;;;;3.70;1.63;;;12.10;90.10;;;;;;5065195;28;20080;-70
2022/10/23 08:02:25;;;;;;;1.85;1.17;;;12.20;90.00;;;;;;5069120;28;20056;-59
2022/10/23 08:04:53;;;;;;;3.50;1.27;;;12.20;89.60;;;;;;5067254;28;20139;-59
2022/10/23 08:07:33;;;;;;;;;;;12.20;89.90;;;;;;5056297;28;20041;-60
2022/10/23 08:10:00;;;;;;;1.50;0.90;;;12.20;89.90;;;;;;5069057;28;20041;-60
2022/10/23 08:12:31;;;;;;;1.35;1.00;;;12.30;89.90;;;;;;5064260;28;20053;-60
2022/10/23 08:14:58;;;;;;;2.55;1.27;;;12.30;89.40;;;;;;5063094;28;20136;-60
2022/10/23 08:17:32;;;;;;;3.35;1.20;;;12.30;90.00;;;;;;5064984;28;20059;-60
2022/10/23 08:20:04;;;;;;;3.05;1.05;;;12.30;90.20;;;;;;5061405;28;20060;-59
2022/10/23 08:22:38;;;;;;;3.08;1.10;;;12.30;89.90;;;;;;5067784;28;20423;-59
2022/10/23 08:25:06;;;;;;;3.47;1.38;;;12.40;90.10;;;;;;5070365;28;20044;-60
2022/10/23 08:27:33;;;;;;;3.53;1.13;;;12.40;89.90;;;;;;5074155;28;20053;-60
2022/10/23 08:30:00;;;;;;;3.15;1.35;;;12.50;90.30;;;;;;5068937;28;20048;-60
2022/10/23 08:32:30;;;;;;;3.47;1.45;;;12.50;90.20;;;;;;5063494;28;20051;-60
2022/10/23 08:35:00;;;;;;;2.30;1.27;;;12.60;90.00;;;;;;5071282;28;20059;-59
2022/10/23 08:37:30;;;;;;;2.33;1.23;;;12.60;90.20;;;;;;5060184;28;20452;-61
2022/10/23 08:39:58;;;;;;;2.20;1.13;;;12.70;90.00;;;;;;5066956;28;20074;-60
2022/10/23 08:42:48;;;;;;;3.67;1.27;;;12.70;89.50;;;;;;5061133;27;20323;-59
2022/10/23 08:45:28;;;;;;;4.40;1.30;;;12.80;89.80;;;;;;5062184;28;20048;-60
2022/10/23 08:48:13;;;;;;;2.65;1.38;;;12.90;89.90;;;;;;5059970;28;20036;-59
2022/10/23 08:51:11;;;;;;;2.22;1.20;;;12.90;89.80;;;;;;5062146;28;20418;-60
2022/10/23 08:53:45;;;;;;;2.60;1.17;;;13.00;89.60;;;;;;5069945;28;20094;-60
2022/10/23 08:56:16;;;;;;;2.42;1.20;;;13.00;89.80;;;;;;5062730;28;20044;-59
2022/10/23 08:58:48;;;;;;;3.70;1.40;;;13.10;89.90;;;;;;5073333;28;20429;-60
2022/10/23 09:01:36;;;;;;;2.33;1.20;;;13.10;89.80;;;;;;5074825;28;20083;-58
2022/10/23 09:04:04;;;;;;;2.45;1.20;;;13.10;89.80;;;;;;5066781;28;20056;-60
2022/10/23 09:06:37;;;;;;;3.20;1.20;;;13.20;89.70;;;;;;5071715;28;20119;-60
2022/10/23 09:09:39;;;;;;;2.47;1.15;;;13.20;89.70;;;;;;5071886;28;20139;-60
2022/10/23 09:12:11;;;;;;;2.83;1.00;;;13.20;89.60;;;;;;5066323;28;20040;-59
2022/10/23 09:14:55;;;;;;;1.80;1.10;;;13.30;89.60;;;;;;5081682;28;20449;-58
2022/10/23 09:17:25;;;;;;;2.05;1.20;;;13.30;89.50;;;;;;5072442;28;20109;-59
2022/10/23 09:19:55;;;;;;;;;;;13.30;89.50;;;;;;5068282;28;20699;-58
2022/10/23 09:22:24;;;;;;;2.33;1.02;;;13.40;89.30;;;;;;5062630;28;20476;-60
2022/10/23 09:24:51;;;;;;;4.20;1.20;;;13.40;89.20;;;;;;5080164;28;20074;-59
2022/10/23 09:27:21;;;;;;;3.28;1.20;;;13.50;89.10;;;;;;5070232;28;20128;-59
2022/10/23 09:29:49;;;;;;;1.77;1.08;;;13.60;89.20;;;;;;5057144;28;20137;-59
2022/10/23 09:32:17;;;;;;;1.83;1.00;;;13.60;89.30;;;;;;5061505;28;20052;-60
2022/10/23 09:34:55;;;;;;;1.50;1.00;;;13.70;89.30;;;;;;5063729;28;20054;-60
2022/10/23 09:37:25;;;;;;;2.50;1.20;;;13.80;89.20;;;;;;5062107;28;20478;-59
2022/10/23 09:40:15;;;;;;;2.20;1.10;;;13.90;89.00;;;;;;5067390;28;20486;-58
2022/10/23 09:42:55;;;;;;;3.10;1.20;;;13.90;88.80;;;;;;5070344;28;20099;-60
2022/10/23 09:45:25;;;;;;;2.33;1.20;;;14.10;88.70;;;;;;5073006;28;20049;-59
2022/10/23 09:48:06;;;;;;;3.75;1.40;;;14.10;88.70;;;;;;5065893;28;20106;-60
2022/10/23 09:50:33;;;;;;;4.07;1.30;;;14.20;88.60;;;;;;5068738;28;20041;-60
2022/10/23 09:53:01;;;;;;;3.08;1.30;;;14.20;88.70;;;;;;5067693;28;20049;-60
2022/10/23 09:55:29;;;;;;;3.42;1.25;;;14.30;88.60;;;;;;5071505;28;20044;-60
2022/10/23 09:57:56;;;;;;;3.08;1.48;;;14.30;88.60;;;;;;5063921;28;20052;-60
2022/10/23 10:00:25;;;;;;;3.10;1.40;;;14.40;88.40;;;;;;5064786;28;20055;-59
2022/10/23 10:02:57;;;;;;;2.50;1.15;;;14.40;88.20;;;;;;5059327;28;20115;-59
2022/10/23 10:05:26;;;;;;;2.10;0.98;;;14.40;88.20;;;;;;5065606;28;20470;-60
2022/10/23 10:08:03;;;;;;;2.20;1.10;;;14.40;88.30;;;;;;5062788;28;20044;-59
2022/10/23 10:10:37;;;;;;;5.47;1.30;;;14.40;88.20;;;;;;5060539;28;20413;-60
2022/10/23 10:13:14;;;;;;;2.20;1.13;;;14.50;88.40;;;;;;5064712;28;20040;-59
2022/10/23 10:15:50;;;;;;;3.30;1.25;;;14.50;88.30;;;;;;5071603;28;20048;-60
2022/10/23 10:18:24;;;;;;;3.28;1.65;;;14.60;88.20;;;;;;5062665;28;20041;-59
2022/10/23 10:21:02;;;;;;;2.97;1.20;;;14.60;88.30;;;;;;5062043;28;20040;-61
2022/10/23 10:23:37;;;;;;;2.90;1.40;;;14.60;88.20;;;;;;5074199;28;20054;-59
2022/10/23 10:26:15;;;;;;;3.63;1.30;;;14.60;88.20;;;;;;5081128;28;20053;-59
2022/10/23 10:28:56;;;;;;;2.58;1.30;;;14.60;88.00;;;;;;5066421;28;20041;-60
2022/10/23 10:31:31;;;;;;;2.75;1.45;;;14.70;87.80;;;;;;5070713;28;20059;-60
2022/10/23 10:34:06;;;;;;;3.05;1.63;;;14.70;87.80;;;;;;5063627;28;20045;-60
2022/10/23 10:36:42;;;;;;;3.10;1.50;;;14.90;87.70;;;;;;5071739;28;20127;-60
2022/10/23 10:39:21;;;;;;;4.68;1.92;;;14.90;87.60;;;;;;5072118;28;20052;-59
2022/10/23 10:42:00;;;;;;;3.67;1.25;;;15.00;87.60;;;;;;5076644;28;20103;-60
2022/10/23 10:44:43;;;;;;;2.67;1.42;;;15.10;87.50;;;;;;5066791;28;20466;-59
2022/10/23 10:47:19;;;;;;;3.13;1.70;;;15.10;87.50;;;;;;5061041;28;20090;-60
2022/10/23 10:50:02;;;;;;;4.63;1.50;;;15.10;87.50;;;;;;5069972;28;20063;-59
2022/10/23 10:52:47;;;;;;;3.40;1.65;;;15.10;87.30;;;;;;5071601;28;20392;-60
2022/10/23 10:55:20;;;;;;;2.83;1.25;;;15.10;87.30;;;;;;5068630;28;20102;-60
2022/10/23 10:57:51;;;;;;;2.97;1.50;;;15.10;87.20;;;;;;5069221;28;20045;-59
2022/10/23 11:00:21;;;;;;;3.03;1.42;;;15.20;87.00;;;;;;5068567;28;20059;-59
2022/10/23 11:02:53;;;;;;;2.72;1.40;;;15.20;87.00;;;;;;5069495;28;20048;-59
2022/10/23 11:05:29;;;;;;;3.22;1.63;;;15.30;86.80;;;;;;5063059;28;20053;-59
2022/10/23 11:08:00;;;;;;;3.17;1.33;;;15.30;86.80;;;;;;5064448;28;20094;-61
2022/10/23 11:10:28;;;;;;;2.58;1.20;;;15.40;86.90;;;;;;5068093;28;20056;-60
2022/10/23 11:12:56;;;;;;;2.15;1.10;;;15.40;86.80;;;;;;5062469;28;20122;-59
2022/10/23 11:15:28;;;;;;;2.83;1.40;;;15.50;86.80;;;;;;5066857;28;20049;-59
2022/10/23 11:17:58;;;;;;;2.50;1.30;;;15.40;86.80;;;;;;5060087;28;20051;-60
2022/10/23 11:20:30;;;;;;;;;;;15.50;86.70;;;;;;5063531;28;20053;-58
2022/10/23 11:23:05;;;;;;;2.40;1.10;;;15.50;86.40;;;;;;5056917;28;19927;-59
2022/10/23 11:25:50;;;;;;;3.03;1.30;;;15.50;86.50;;;;;;5067361;28;20121;-59
2022/10/23 11:28:28;;;;;;;10.52;1.98;;;15.50;86.50;;;;;;5066652;28;20052;-59
2022/10/23 11:31:07;;;;;;;3.05;1.00;;;15.40;86.50;;;;;;5061398;28;20048;-59
2022/10/23 11:34:19;;;;;;;2.90;1.70;;;15.40;86.40;;;;;;5071406;28;20037;-59
2022/10/23 11:36:50;;;;;;;3.08;1.42;;;15.40;86.50;;;;;;5040307;28;20048;-59
2022/10/23 11:39:21;;;;;;;3.42;1.48;;;15.40;86.30;;;;;;5063655;28;20055;-60
2022/10/23 11:41:53;;;;;;;2.17;1.30;;;15.40;86.50;;;;;;5071216;28;20490;-59
2022/10/23 11:44:40;;;;;;;4.07;1.30;;;15.50;86.60;;;;;;5067589;28;20540;-60
2022/10/23 11:47:28;;;;;;;3.95;1.42;;;15.50;86.60;;;;;;5070814;28;20181;-60
2022/10/23 11:50:27;;;;;;;1.67;1.17;;;15.50;86.60;;;;;;5060856;28;20052;-60
2022/10/23 11:52:57;;;;;;;2.60;1.30;;;15.50;86.50;;;;;;5054540;28;20054;-61
2022/10/23 11:55:26;;;;;;;2.92;1.30;;;15.40;86.50;;;;;;5060122;28;20499;-59
2022/10/23 11:58:20;;;;;;;3.00;1.50;;;15.40;86.70;;;;;;5063541;28;20049;-59
2022/10/23 12:00:56;;;;;;;3.08;1.30;;;15.40;86.60;;;;;;5068649;28;20131;-59
2022/10/23 12:03:27;;;;;;;3.20;1.45;;;15.40;86.60;;;;;;5070335;28;20056;-60
2022/10/23 12:06:00;;;;;;;2.50;1.35;;;15.40;86.70;;;;;;5099553;27;23121;-60
2022/10/23 12:08:31;;;;;;;3.67;1.33;;;15.40;86.70;;;;;;5089210;28;20066;-61
2022/10/23 12:10:58;;;;;;;2.13;1.25;;;15.40;86.50;;;;;;5088589;28;20131;-59
2022/10/23 12:13:46;;;;;;;3.58;1.73;;;15.50;86.40;;;;;;5090494;28;20044;-61
2022/10/23 12:16:13;;;;;;;3.35;1.60;;;15.60;86.40;;;;;;5079527;28;20079;-60
2022/10/23 12:18:52;;;;;;;2.50;1.30;;;15.60;86.40;;;;;;5079901;28;20123;-59
2022/10/23 12:21:26;;;;;;;3.72;1.65;;;15.60;86.50;;;;;;5081865;28;20120;-59
2022/10/23 12:24:22;;;;;;;;;;;15.60;86.40;;;;;;5090201;28;20075;-61
2022/10/23 12:27:02;;;;;;;4.45;1.85;;;15.60;86.30;;;;;;5062806;28;19924;-61
2022/10/23 12:29:39;;;;;;;;;;;15.60;86.60;;;;;;5084782;28;20036;-59
2022/10/23 12:32:20;;;;;;;3.05;1.73;;;15.60;86.60;;;;;;5086857;28;19920;-60
2022/10/23 12:34:58;;;;;;;3.35;1.80;;;15.60;86.70;;;;;;5085882;28;20140;-59
2022/10/23 12:37:48;;;;;;;2.92;1.83;;;15.60;86.60;;;;;;5087751;28;20147;-59
2022/10/23 12:40:15;;;;;;;5.50;2.80;;;15.60;86.40;;;;;;5085984;28;20075;-60
2022/10/23 12:42:51;;;;;;;20.77;11.40;;;15.60;86.30;;;;;;5088637;28;20554;-60
2022/10/23 12:45:23;;;;;;;17.08;11.45;;;15.70;86.30;;;;;;5090550;28;20124;-60
2022/10/23 12:47:51;;;;;;;13.00;8.52;;;15.70;86.30;;;;;;5089611;28;20489;-60
2022/10/23 12:50:20;;;;;;;8.73;6.68;;;15.80;86.40;;;;;;5089005;28;20482;-59
2022/10/23 12:52:55;;;;;;;7.75;5.30;;;15.80;86.30;;;;;;5088895;28;20394;-60
2022/10/23 12:55:23;;;;;;;5.85;4.10;;;15.90;86.30;;;;;;5089564;28;20052;-60
2022/10/23 12:57:50;;;;;;;8.93;3.20;;;15.90;86.40;;;;;;5090349;28;20055;-61
2022/10/23 13:00:21;;;;;;;6.38;2.58;;;16.00;86.30;;;;;;5085838;28;20105;-62
2022/10/23 13:02:58;;;;;;;4.72;2.55;;;16.10;86.30;;;;;;5090579;28;20044;-60
2022/10/23 13:05:26;;;;;;;4.57;2.58;;;16.10;86.10;;;;;;5086927;28;20048;-62
2022/10/23 13:07:54;;;;;;;7.07;3.13;;;16.10;86.00;;;;;;5085499;28;20122;-59
2022/10/23 13:10:32;;;;;;;6.93;3.97;;;16.10;86.00;;;;;;5089981;28;20120;-60
2022/10/23 13:13:06;;;;;;;10.18;6.13;;;16.10;85.80;;;;;;5092401;28;20142;-60
2022/10/23 13:15:40;;;;;;;11.25;6.32;;;16.10;85.70;;;;;;5089709;28;20127;-60
2022/10/23 13:18:08;;;;;;;13.80;8.23;;;16.10;85.70;;;;;;5091937;28;20045;-60
2022/10/23 13:20:43;;;;;;;16.00;9.75;;;16.10;85.60;;;;;;5093990;28;20055;-59
2022/10/23 13:23:16;;;;;;;17.17;9.27;;;16.10;85.80;;;;;;5087740;28;20105;-60